sensor_id;sensor_type;location;lat;lon;timestamp;P1;durP1;ratioP1;P2;durP2;ratioP2
16969;SDS011;8601;48.718;8.992;2023-02-04T00:01:38;5.90;;;4.63;;
16969;SDS011;8601;48.718;8.992;2023-02-04T00:04:05;4.80;;;4.07;;
16969;SDS011;8601;48.718;8.992;2023-02-04T00:06:32;4.27;;;3.87;;
16969;SDS011;8601;48.718;8.992;2023-02-04T00:08:59;4.63;;;4.20;;
16969;SDS011;8601;48.718;8.992;2023-02-04T00:11:27;5.07;;;4.00;;
16969;SDS011;8601;48.718;8.992;2023-02-04T00:13:55;4.67;;;4.27;;
16969;SDS011;8601;48.718;8.992;2023-02-04T00:16:22;4.67;;;4.27;;
16969;SDS011;8601;48.718;8.992;2023-02-04T00:18:49;4.57;;;4.00;;
16969;SDS011;8601;48.718;8.992;2023-02-04T00:21:15;4.10;;;3.70;;
16969;SDS011;8601;48.718;8.992;2023-02-04T00:23:43;3.93;;;3.53;;
16969;SDS011;8601;48.718;8.992;2023-02-04T00:26:10;3.50;;;3.20;;
16969;SDS011;8601;48.718;8.992;2023-02-04T00:28:39;4.10;;;3.80;;
16969;SDS011;8601;48.718;8.992;2023-02-04T00:31:06;3.57;;;3.27;;
16969;SDS011;8601;48.718;8.992;2023-02-04T00:33:33;3.60;;;3.30;;
16969;SDS011;8601;48.718;8.992;2023-02-04T00:36:00;3.60;;;3.30;;
16969;SDS011;8601;48.718;8.992;2023-02-04T00:38:26;3.63;;;3.33;;
16969;SDS011;8601;48.718;8.992;2023-02-04T00:40:53;3.60;;;3.30;;
16969;SDS011;8601;48.718;8.992;2023-02-04T00:43:20;3.43;;;3.13;;
16969;SDS011;8601;48.718;8.992;2023-02-04T00:45:48;3.40;;;3.10;;
16969;SDS011;8601;48.718;8.992;2023-02-04T00:48:15;3.40;;;3.20;;
16969;SDS011;8601;48.718;8.992;2023-02-04T00:50:42;3.20;;;3.00;;
16969;SDS011;8601;48.718;8.992;2023-02-04T00:53:09;3.47;;;3.17;;
16969;SDS011;8601;48.718;8.992;2023-02-04T00:55:36;3.53;;;3.23;;
16969;SDS011;8601;48.718;8.992;2023-02-04T00:58:03;3.40;;;3.10;;
16969;SDS011;8601;48.718;8.992;2023-02-04T01:00:30;3.30;;;3.00;;
16969;SDS011;8601;48.718;8.992;2023-02-04T01:02:58;3.23;;;3.03;;
16969;SDS011;8601;48.718;8.992;2023-02-04T01:05:25;3.67;;;3.30;;
16969;SDS011;8601;48.718;8.992;2023-02-04T01:07:52;3.80;;;3.50;;
16969;SDS011;8601;48.718;8.992;2023-02-04T01:10:19;3.60;;;3.30;;
16969;SDS011;8601;48.718;8.992;2023-02-04T01:12:46;3.17;;;2.97;;
16969;SDS011;8601;48.718;8.992;2023-02-04T01:15:13;3.53;;;3.23;;
16969;SDS011;8601;48.718;8.992;2023-02-04T01:17:40;3.30;;;3.10;;
16969;SDS011;8601;48.718;8.992;2023-02-04T01:20:09;3.20;;;3.00;;
16969;SDS011;8601;48.718;8.992;2023-02-04T01:22:36;3.27;;;3.03;;
16969;SDS011;8601;48.718;8.992;2023-02-04T01:25:03;3.20;;;3.00;;
16969;SDS011;8601;48.718;8.992;2023-02-04T01:27:31;3.30;;;3.10;;
16969;SDS011;8601;48.718;8.992;2023-02-04T01:29:57;3.97;;;3.67;;
16969;SDS011;8601;48.718;8.992;2023-02-04T01:32:24;3.30;;;3.03;;
16969;SDS011;8601;48.718;8.992;2023-02-04T01:34:51;3.70;;;3.40;;
16969;SDS011;8601;48.718;8.992;2023-02-04T01:37:19;4.23;;;3.43;;
16969;SDS011;8601;48.718;8.992;2023-02-04T01:39:46;3.80;;;3.50;;
16969;SDS011;8601;48.718;8.992;2023-02-04T01:42:13;3.83;;;3.50;;
16969;SDS011;8601;48.718;8.992;2023-02-04T01:44:40;3.63;;;3.33;;
16969;SDS011;8601;48.718;8.992;2023-02-04T01:47:07;4.07;;;3.77;;
16969;SDS011;8601;48.718;8.992;2023-02-04T01:49:35;4.43;;;4.03;;
16969;SDS011;8601;48.718;8.992;2023-02-04T01:52:02;8.53;;;4.77;;
16969;SDS011;8601;48.718;8.992;2023-02-04T01:54:31;4.97;;;4.57;;
16969;SDS011;8601;48.718;8.992;2023-02-04T01:56:57;5.13;;;4.40;;
16969;SDS011;8601;48.718;8.992;2023-02-04T01:59:25;5.10;;;4.60;;
16969;SDS011;8601;48.718;8.992;2023-02-04T02:01:52;4.37;;;3.73;;
16969;SDS011;8601;48.718;8.992;2023-02-04T02:04:20;4.47;;;3.90;;
16969;SDS011;8601;48.718;8.992;2023-02-04T02:06:55;3.20;;;2.53;;
16969;SDS011;8601;48.718;8.992;2023-02-04T02:09:24;2.90;;;2.00;;
16969;SDS011;8601;48.718;8.992;2023-02-04T02:11:53;3.83;;;1.90;;
16969;SDS011;8601;48.718;8.992;2023-02-04T02:14:20;5.40;;;2.27;;
16969;SDS011;8601;48.718;8.992;2023-02-04T02:16:48;5.10;;;2.20;;
16969;SDS011;8601;48.718;8.992;2023-02-04T02:19:15;4.20;;;1.93;;
16969;SDS011;8601;48.718;8.992;2023-02-04T02:21:48;3.63;;;2.10;;
16969;SDS011;8601;48.718;8.992;2023-02-04T02:24:25;2.93;;;1.90;;
16969;SDS011;8601;48.718;8.992;2023-02-04T02:26:53;4.23;;;2.10;;
16969;SDS011;8601;48.718;8.992;2023-02-04T02:29:21;2.77;;;1.90;;
16969;SDS011;8601;48.718;8.992;2023-02-04T02:31:49;3.13;;;2.10;;
16969;SDS011;8601;48.718;8.992;2023-02-04T02:34:16;5.43;;;2.03;;
16969;SDS011;8601;48.718;8.992;2023-02-04T02:36:44;3.20;;;2.30;;
16969;SDS011;8601;48.718;8.992;2023-02-04T02:39:11;3.57;;;2.00;;
16969;SDS011;8601;48.718;8.992;2023-02-04T02:41:39;2.37;;;1.67;;
16969;SDS011;8601;48.718;8.992;2023-02-04T02:44:07;3.90;;;2.10;;
16969;SDS011;8601;48.718;8.992;2023-02-04T02:46:35;2.87;;;1.67;;
16969;SDS011;8601;48.718;8.992;2023-02-04T02:49:03;1.80;;;1.67;;
16969;SDS011;8601;48.718;8.992;2023-02-04T02:51:30;3.17;;;1.90;;
16969;SDS011;8601;48.718;8.992;2023-02-04T02:53:57;1.60;;;1.40;;
16969;SDS011;8601;48.718;8.992;2023-02-04T02:56:24;1.63;;;1.50;;
16969;SDS011;8601;48.718;8.992;2023-02-04T02:58:52;3.27;;;1.90;;
16969;SDS011;8601;48.718;8.992;2023-02-04T03:01:19;2.00;;;1.73;;
16969;SDS011;8601;48.718;8.992;2023-02-04T03:03:46;2.87;;;1.80;;
16969;SDS011;8601;48.718;8.992;2023-02-04T03:06:17;2.40;;;1.57;;
16969;SDS011;8601;48.718;8.992;2023-02-04T03:08:47;2.50;;;1.67;;
16969;SDS011;8601;48.718;8.992;2023-02-04T03:11:19;2.30;;;1.60;;
16969;SDS011;8601;48.718;8.992;2023-02-04T03:13:46;2.10;;;1.90;;
16969;SDS011;8601;48.718;8.992;2023-02-04T03:16:14;2.37;;;1.80;;
16969;SDS011;8601;48.718;8.992;2023-02-04T03:18:42;5.50;;;2.40;;
16969;SDS011;8601;48.718;8.992;2023-02-04T03:21:09;2.60;;;1.80;;
16969;SDS011;8601;48.718;8.992;2023-02-04T03:23:36;3.03;;;1.90;;
16969;SDS011;8601;48.718;8.992;2023-02-04T03:26:04;3.63;;;1.97;;
16969;SDS011;8601;48.718;8.992;2023-02-04T03:28:32;4.23;;;1.90;;
16969;SDS011;8601;48.718;8.992;2023-02-04T03:30:59;3.13;;;2.03;;
16969;SDS011;8601;48.718;8.992;2023-02-04T03:33:27;2.17;;;1.90;;
16969;SDS011;8601;48.718;8.992;2023-02-04T03:35:56;3.70;;;2.30;;
16969;SDS011;8601;48.718;8.992;2023-02-04T03:38:23;3.00;;;2.40;;
16969;SDS011;8601;48.718;8.992;2023-02-04T03:40:50;3.37;;;2.33;;
16969;SDS011;8601;48.718;8.992;2023-02-04T03:43:17;2.73;;;2.40;;
16969;SDS011;8601;48.718;8.992;2023-02-04T03:45:44;4.30;;;2.30;;
16969;SDS011;8601;48.718;8.992;2023-02-04T03:48:11;7.20;;;3.00;;
16969;SDS011;8601;48.718;8.992;2023-02-04T03:50:40;6.87;;;2.83;;
16969;SDS011;8601;48.718;8.992;2023-02-04T03:53:07;9.07;;;3.20;;
16969;SDS011;8601;48.718;8.992;2023-02-04T03:55:34;8.37;;;3.20;;
16969;SDS011;8601;48.718;8.992;2023-02-04T03:58:02;8.37;;;3.53;;
16969;SDS011;8601;48.718;8.992;2023-02-04T04:00:29;7.23;;;3.60;;
16969;SDS011;8601;48.718;8.992;2023-02-04T04:02:57;5.53;;;3.27;;
16969;SDS011;8601;48.718;8.992;2023-02-04T04:05:24;7.53;;;3.50;;
16969;SDS011;8601;48.718;8.992;2023-02-04T04:07:53;9.57;;;3.67;;
16969;SDS011;8601;48.718;8.992;2023-02-04T04:10:20;6.60;;;3.43;;
16969;SDS011;8601;48.718;8.992;2023-02-04T04:12:49;8.27;;;3.07;;
16969;SDS011;8601;48.718;8.992;2023-02-04T04:15:16;9.57;;;3.50;;
16969;SDS011;8601;48.718;8.992;2023-02-04T04:17:42;6.20;;;3.43;;
16969;SDS011;8601;48.718;8.992;2023-02-04T04:20:10;6.40;;;3.70;;
16969;SDS011;8601;48.718;8.992;2023-02-04T04:22:37;9.77;;;3.57;;
16969;SDS011;8601;48.718;8.992;2023-02-04T04:25:06;11.63;;;3.87;;
16969;SDS011;8601;48.718;8.992;2023-02-04T04:27:33;6.90;;;4.17;;
16969;SDS011;8601;48.718;8.992;2023-02-04T04:30:00;9.87;;;3.77;;
16969;SDS011;8601;48.718;8.992;2023-02-04T04:32:27;8.13;;;3.63;;
16969;SDS011;8601;48.718;8.992;2023-02-04T04:34:54;7.87;;;3.80;;
16969;SDS011;8601;48.718;8.992;2023-02-04T04:37:21;8.23;;;4.00;;
16969;SDS011;8601;48.718;8.992;2023-02-04T04:39:47;13.30;;;3.90;;
16969;SDS011;8601;48.718;8.992;2023-02-04T04:42:16;7.20;;;4.50;;
16969;SDS011;8601;48.718;8.992;2023-02-04T04:44:42;7.40;;;3.97;;
16969;SDS011;8601;48.718;8.992;2023-02-04T04:47:09;9.57;;;4.73;;
16969;SDS011;8601;48.718;8.992;2023-02-04T04:49:36;10.07;;;4.63;;
16969;SDS011;8601;48.718;8.992;2023-02-04T04:52:03;7.87;;;3.83;;
16969;SDS011;8601;48.718;8.992;2023-02-04T04:54:32;9.60;;;4.03;;
16969;SDS011;8601;48.718;8.992;2023-02-04T04:56:59;7.17;;;3.60;;
16969;SDS011;8601;48.718;8.992;2023-02-04T04:59:28;5.73;;;3.57;;
16969;SDS011;8601;48.718;8.992;2023-02-04T05:01:55;7.70;;;4.10;;
16969;SDS011;8601;48.718;8.992;2023-02-04T05:04:22;5.53;;;3.83;;
16969;SDS011;8601;48.718;8.992;2023-02-04T05:06:49;5.30;;;3.90;;
16969;SDS011;8601;48.718;8.992;2023-02-04T05:09:15;7.67;;;3.80;;
16969;SDS011;8601;48.718;8.992;2023-02-04T05:11:42;7.27;;;4.00;;
16969;SDS011;8601;48.718;8.992;2023-02-04T05:14:09;6.77;;;3.97;;
16969;SDS011;8601;48.718;8.992;2023-02-04T05:16:37;6.07;;;3.60;;
16969;SDS011;8601;48.718;8.992;2023-02-04T05:19:04;7.80;;;4.10;;
16969;SDS011;8601;48.718;8.992;2023-02-04T05:21:31;8.23;;;4.17;;
16969;SDS011;8601;48.718;8.992;2023-02-04T05:23:58;6.03;;;4.30;;
16969;SDS011;8601;48.718;8.992;2023-02-04T05:26:26;8.37;;;4.20;;
16969;SDS011;8601;48.718;8.992;2023-02-04T05:28:53;5.83;;;4.00;;
16969;SDS011;8601;48.718;8.992;2023-02-04T05:31:20;6.03;;;3.80;;
16969;SDS011;8601;48.718;8.992;2023-02-04T05:33:48;6.33;;;3.60;;
16969;SDS011;8601;48.718;8.992;2023-02-04T05:36:15;7.23;;;3.83;;
16969;SDS011;8601;48.718;8.992;2023-02-04T05:38:42;7.67;;;4.07;;
16969;SDS011;8601;48.718;8.992;2023-02-04T05:41:09;6.60;;;4.20;;
16969;SDS011;8601;48.718;8.992;2023-02-04T05:43:36;5.27;;;4.00;;
16969;SDS011;8601;48.718;8.992;2023-02-04T05:46:03;6.70;;;4.10;;
16969;SDS011;8601;48.718;8.992;2023-02-04T05:48:31;5.97;;;4.17;;
16969;SDS011;8601;48.718;8.992;2023-02-04T05:50:59;6.40;;;4.57;;
16969;SDS011;8601;48.718;8.992;2023-02-04T05:53:26;9.07;;;4.40;;
16969;SDS011;8601;48.718;8.992;2023-02-04T05:55:53;7.17;;;4.43;;
16969;SDS011;8601;48.718;8.992;2023-02-04T05:58:20;7.30;;;4.53;;
16969;SDS011;8601;48.718;8.992;2023-02-04T06:00:47;7.70;;;4.30;;
16969;SDS011;8601;48.718;8.992;2023-02-04T06:03:14;6.37;;;4.40;;
16969;SDS011;8601;48.718;8.992;2023-02-04T06:05:43;6.43;;;4.20;;
16969;SDS011;8601;48.718;8.992;2023-02-04T06:08:12;8.40;;;4.57;;
16969;SDS011;8601;48.718;8.992;2023-02-04T06:10:40;8.33;;;4.53;;
16969;SDS011;8601;48.718;8.992;2023-02-04T06:13:07;5.97;;;4.47;;
16969;SDS011;8601;48.718;8.992;2023-02-04T06:15:34;5.93;;;4.10;;
16969;SDS011;8601;48.718;8.992;2023-02-04T06:18:01;6.03;;;4.37;;
16969;SDS011;8601;48.718;8.992;2023-02-04T06:20:28;7.87;;;5.00;;
16969;SDS011;8601;48.718;8.992;2023-02-04T06:22:55;10.80;;;5.37;;
16969;SDS011;8601;48.718;8.992;2023-02-04T06:25:24;10.53;;;4.90;;
16969;SDS011;8601;48.718;8.992;2023-02-04T06:27:51;11.33;;;6.07;;
16969;SDS011;8601;48.718;8.992;2023-02-04T06:30:18;10.20;;;5.57;;
16969;SDS011;8601;48.718;8.992;2023-02-04T06:32:45;12.00;;;5.87;;
16969;SDS011;8601;48.718;8.992;2023-02-04T06:35:11;9.10;;;5.97;;
16969;SDS011;8601;48.718;8.992;2023-02-04T06:37:40;9.67;;;5.00;;
16969;SDS011;8601;48.718;8.992;2023-02-04T06:40:07;12.83;;;5.47;;
16969;SDS011;8601;48.718;8.992;2023-02-04T06:42:37;13.13;;;6.73;;
16969;SDS011;8601;48.718;8.992;2023-02-04T06:45:04;12.97;;;6.33;;
16969;SDS011;8601;48.718;8.992;2023-02-04T06:47:31;12.97;;;6.97;;
16969;SDS011;8601;48.718;8.992;2023-02-04T06:49:58;13.07;;;7.13;;
16969;SDS011;8601;48.718;8.992;2023-02-04T06:52:25;15.33;;;6.60;;
16969;SDS011;8601;48.718;8.992;2023-02-04T06:54:52;10.43;;;6.17;;
16969;SDS011;8601;48.718;8.992;2023-02-04T06:57:19;15.43;;;6.67;;
16969;SDS011;8601;48.718;8.992;2023-02-04T06:59:47;16.37;;;6.97;;
16969;SDS011;8601;48.718;8.992;2023-02-04T07:02:14;12.57;;;6.30;;
16969;SDS011;8601;48.718;8.992;2023-02-04T07:04:41;15.03;;;7.00;;
16969;SDS011;8601;48.718;8.992;2023-02-04T07:07:08;12.80;;;6.43;;
16969;SDS011;8601;48.718;8.992;2023-02-04T07:09:35;11.30;;;6.50;;
16969;SDS011;8601;48.718;8.992;2023-02-04T07:12:04;12.47;;;6.83;;
16969;SDS011;8601;48.718;8.992;2023-02-04T07:14:31;15.33;;;6.93;;
16969;SDS011;8601;48.718;8.992;2023-02-04T07:16:59;11.60;;;7.63;;
16969;SDS011;8601;48.718;8.992;2023-02-04T07:19:26;15.17;;;7.83;;
16969;SDS011;8601;48.718;8.992;2023-02-04T07:21:53;13.13;;;7.47;;
16969;SDS011;8601;48.718;8.992;2023-02-04T07:24:21;14.63;;;7.23;;
16969;SDS011;8601;48.718;8.992;2023-02-04T07:26:48;19.97;;;8.07;;
16969;SDS011;8601;48.718;8.992;2023-02-04T07:29:15;12.80;;;7.30;;
16969;SDS011;8601;48.718;8.992;2023-02-04T07:31:43;14.83;;;7.80;;
16969;SDS011;8601;48.718;8.992;2023-02-04T07:34:12;13.57;;;7.50;;
16969;SDS011;8601;48.718;8.992;2023-02-04T07:36:39;16.63;;;7.27;;
16969;SDS011;8601;48.718;8.992;2023-02-04T07:39:06;17.73;;;7.90;;
16969;SDS011;8601;48.718;8.992;2023-02-04T07:41:34;13.80;;;7.53;;
16969;SDS011;8601;48.718;8.992;2023-02-04T07:44:01;18.50;;;8.13;;
16969;SDS011;8601;48.718;8.992;2023-02-04T07:46:29;22.07;;;8.23;;
16969;SDS011;8601;48.718;8.992;2023-02-04T07:48:56;18.70;;;8.67;;
16969;SDS011;8601;48.718;8.992;2023-02-04T07:51:24;16.57;;;8.40;;
16969;SDS011;8601;48.718;8.992;2023-02-04T07:53:51;18.93;;;8.90;;
16969;SDS011;8601;48.718;8.992;2023-02-04T07:56:18;15.53;;;7.13;;
16969;SDS011;8601;48.718;8.992;2023-02-04T07:58:45;14.47;;;9.50;;
16969;SDS011;8601;48.718;8.992;2023-02-04T08:01:11;21.13;;;7.07;;
16969;SDS011;8601;48.718;8.992;2023-02-04T08:03:38;10.50;;;5.43;;
16969;SDS011;8601;48.718;8.992;2023-02-04T08:06:06;11.93;;;6.30;;
16969;SDS011;8601;48.718;8.992;2023-02-04T08:08:35;12.23;;;5.90;;
16969;SDS011;8601;48.718;8.992;2023-02-04T08:11:02;7.97;;;5.23;;
16969;SDS011;8601;48.718;8.992;2023-02-04T08:13:29;12.57;;;5.60;;
16969;SDS011;8601;48.718;8.992;2023-02-04T08:15:56;15.60;;;6.60;;
16969;SDS011;8601;48.718;8.992;2023-02-04T08:18:23;10.67;;;5.93;;
16969;SDS011;8601;48.718;8.992;2023-02-04T08:20:50;14.87;;;6.00;;
16969;SDS011;8601;48.718;8.992;2023-02-04T08:23:17;11.40;;;6.23;;
16969;SDS011;8601;48.718;8.992;2023-02-04T08:25:46;11.23;;;6.07;;
16969;SDS011;8601;48.718;8.992;2023-02-04T08:28:12;13.23;;;6.73;;
16969;SDS011;8601;48.718;8.992;2023-02-04T08:30:39;20.27;;;7.07;;
16969;SDS011;8601;48.718;8.992;2023-02-04T08:33:06;16.57;;;7.67;;
16969;SDS011;8601;48.718;8.992;2023-02-04T08:35:33;16.13;;;7.53;;
16969;SDS011;8601;48.718;8.992;2023-02-04T08:38:00;17.67;;;7.90;;
16969;SDS011;8601;48.718;8.992;2023-02-04T08:40:27;19.63;;;8.17;;
16969;SDS011;8601;48.718;8.992;2023-02-04T08:42:56;26.03;;;7.83;;
16969;SDS011;8601;48.718;8.992;2023-02-04T08:45:22;15.33;;;7.60;;
16969;SDS011;8601;48.718;8.992;2023-02-04T08:47:49;15.57;;;7.53;;
16969;SDS011;8601;48.718;8.992;2023-02-04T08:50:16;19.17;;;7.70;;
16969;SDS011;8601;48.718;8.992;2023-02-04T08:52:43;19.47;;;7.93;;
16969;SDS011;8601;48.718;8.992;2023-02-04T08:55:10;17.03;;;7.83;;
16969;SDS011;8601;48.718;8.992;2023-02-04T08:57:37;20.57;;;7.63;;
16969;SDS011;8601;48.718;8.992;2023-02-04T09:00:06;21.67;;;9.40;;
16969;SDS011;8601;48.718;8.992;2023-02-04T09:02:33;13.97;;;7.50;;
16969;SDS011;8601;48.718;8.992;2023-02-04T09:05:00;14.23;;;7.63;;
16969;SDS011;8601;48.718;8.992;2023-02-04T09:07:27;12.27;;;7.23;;
16969;SDS011;8601;48.718;8.992;2023-02-04T09:09:54;19.23;;;7.50;;
16969;SDS011;8601;48.718;8.992;2023-02-04T09:12:21;13.50;;;7.63;;
16969;SDS011;8601;48.718;8.992;2023-02-04T09:14:48;16.37;;;8.30;;
16969;SDS011;8601;48.718;8.992;2023-02-04T09:17:16;16.50;;;7.30;;
16969;SDS011;8601;48.718;8.992;2023-02-04T09:19:44;19.27;;;7.13;;
16969;SDS011;8601;48.718;8.992;2023-02-04T09:22:11;16.77;;;7.10;;
16969;SDS011;8601;48.718;8.992;2023-02-04T09:24:39;13.00;;;7.60;;
16969;SDS011;8601;48.718;8.992;2023-02-04T09:27:06;13.13;;;6.70;;
16969;SDS011;8601;48.718;8.992;2023-02-04T09:29:33;14.83;;;6.73;;
16969;SDS011;8601;48.718;8.992;2023-02-04T09:32:00;13.17;;;7.20;;
16969;SDS011;8601;48.718;8.992;2023-02-04T09:34:28;14.83;;;7.00;;
16969;SDS011;8601;48.718;8.992;2023-02-04T09:36:56;15.43;;;6.77;;
16969;SDS011;8601;48.718;8.992;2023-02-04T09:39:23;14.67;;;7.83;;
16969;SDS011;8601;48.718;8.992;2023-02-04T09:41:50;14.50;;;6.67;;
16969;SDS011;8601;48.718;8.992;2023-02-04T09:44:19;16.50;;;5.97;;
16969;SDS011;8601;48.718;8.992;2023-02-04T09:46:48;13.27;;;5.93;;
16969;SDS011;8601;48.718;8.992;2023-02-04T09:49:16;10.30;;;5.07;;
16969;SDS011;8601;48.718;8.992;2023-02-04T09:51:44;8.50;;;4.40;;
16969;SDS011;8601;48.718;8.992;2023-02-04T09:54:15;12.67;;;5.07;;
16969;SDS011;8601;48.718;8.992;2023-02-04T09:56:44;12.03;;;5.17;;
16969;SDS011;8601;48.718;8.992;2023-02-04T09:59:12;15.37;;;5.47;;
16969;SDS011;8601;48.718;8.992;2023-02-04T10:01:40;13.03;;;4.70;;
16969;SDS011;8601;48.718;8.992;2023-02-04T10:04:08;12.77;;;4.20;;
16969;SDS011;8601;48.718;8.992;2023-02-04T10:06:38;13.53;;;4.63;;
16969;SDS011;8601;48.718;8.992;2023-02-04T10:09:08;11.83;;;4.07;;
16969;SDS011;8601;48.718;8.992;2023-02-04T10:11:37;12.60;;;4.33;;
16969;SDS011;8601;48.718;8.992;2023-02-04T10:14:07;12.80;;;4.10;;
16969;SDS011;8601;48.718;8.992;2023-02-04T10:16:38;8.77;;;3.70;;
16969;SDS011;8601;48.718;8.992;2023-02-04T10:19:10;12.47;;;4.00;;
16969;SDS011;8601;48.718;8.992;2023-02-04T10:21:40;10.97;;;3.40;;
16969;SDS011;8601;48.718;8.992;2023-02-04T10:24:11;13.80;;;3.60;;
16969;SDS011;8601;48.718;8.992;2023-02-04T10:26:40;9.67;;;4.27;;
16969;SDS011;8601;48.718;8.992;2023-02-04T10:29:12;10.07;;;4.23;;
16969;SDS011;8601;48.718;8.992;2023-02-04T10:31:42;10.10;;;3.40;;
16969;SDS011;8601;48.718;8.992;2023-02-04T10:34:11;13.70;;;4.27;;
16969;SDS011;8601;48.718;8.992;2023-02-04T10:36:41;9.00;;;3.63;;
16969;SDS011;8601;48.718;8.992;2023-02-04T10:39:11;11.43;;;3.20;;
16969;SDS011;8601;48.718;8.992;2023-02-04T10:41:43;11.13;;;3.63;;
16969;SDS011;8601;48.718;8.992;2023-02-04T10:44:12;10.73;;;3.67;;
16969;SDS011;8601;48.718;8.992;2023-02-04T10:46:40;10.93;;;3.87;;
16969;SDS011;8601;48.718;8.992;2023-02-04T10:49:15;10.07;;;3.13;;
16969;SDS011;8601;48.718;8.992;2023-02-04T10:51:44;8.47;;;3.03;;
16969;SDS011;8601;48.718;8.992;2023-02-04T10:54:13;11.33;;;3.57;;
16969;SDS011;8601;48.718;8.992;2023-02-04T10:57:02;9.90;;;3.80;;
16969;SDS011;8601;48.718;8.992;2023-02-04T10:59:39;12.77;;;3.20;;
16969;SDS011;8601;48.718;8.992;2023-02-04T11:02:18;12.17;;;4.17;;
16969;SDS011;8601;48.718;8.992;2023-02-04T11:04:59;9.00;;;3.30;;
16969;SDS011;8601;48.718;8.992;2023-02-04T11:07:26;10.07;;;3.70;;
16969;SDS011;8601;48.718;8.992;2023-02-04T11:09:55;11.60;;;4.47;;
16969;SDS011;8601;48.718;8.992;2023-02-04T11:12:23;12.17;;;3.20;;
16969;SDS011;8601;48.718;8.992;2023-02-04T11:15:03;13.07;;;3.77;;
16969;SDS011;8601;48.718;8.992;2023-02-04T11:17:31;11.10;;;3.80;;
16969;SDS011;8601;48.718;8.992;2023-02-04T11:20:12;12.50;;;4.63;;
16969;SDS011;8601;48.718;8.992;2023-02-04T11:22:42;11.77;;;3.43;;
16969;SDS011;8601;48.718;8.992;2023-02-04T11:28:01;8.77;;;4.03;;
16969;SDS011;8601;48.718;8.992;2023-02-04T11:30:39;10.10;;;3.50;;
16969;SDS011;8601;48.718;8.992;2023-02-04T11:33:18;9.90;;;3.40;;
16969;SDS011;8601;48.718;8.992;2023-02-04T11:36:01;10.00;;;2.87;;
16969;SDS011;8601;48.718;8.992;2023-02-04T11:38:30;8.53;;;3.70;;
16969;SDS011;8601;48.718;8.992;2023-02-04T11:40:59;7.97;;;2.80;;
16969;SDS011;8601;48.718;8.992;2023-02-04T11:43:26;14.93;;;4.97;;
16969;SDS011;8601;48.718;8.992;2023-02-04T11:46:01;9.53;;;2.93;;
16969;SDS011;8601;48.718;8.992;2023-02-04T11:48:30;10.43;;;3.23;;
16969;SDS011;8601;48.718;8.992;2023-02-04T11:50:58;7.70;;;2.90;;
16969;SDS011;8601;48.718;8.992;2023-02-04T11:53:28;10.43;;;4.13;;
16969;SDS011;8601;48.718;8.992;2023-02-04T11:55:55;10.53;;;2.60;;
16969;SDS011;8601;48.718;8.992;2023-02-04T11:58:24;11.67;;;3.17;;
16969;SDS011;8601;48.718;8.992;2023-02-04T12:00:51;11.37;;;3.40;;
16969;SDS011;8601;48.718;8.992;2023-02-04T12:03:20;8.40;;;3.47;;
16969;SDS011;8601;48.718;8.992;2023-02-04T12:05:49;10.73;;;3.43;;
16969;SDS011;8601;48.718;8.992;2023-02-04T12:08:25;9.47;;;3.47;;
16969;SDS011;8601;48.718;8.992;2023-02-04T12:11:01;7.90;;;2.83;;
16969;SDS011;8601;48.718;8.992;2023-02-04T12:13:44;11.10;;;3.50;;
16969;SDS011;8601;48.718;8.992;2023-02-04T12:16:13;12.23;;;3.43;;
16969;SDS011;8601;48.718;8.992;2023-02-04T12:18:40;10.60;;;3.90;;
16969;SDS011;8601;48.718;8.992;2023-02-04T12:21:07;11.20;;;3.20;;
16969;SDS011;8601;48.718;8.992;2023-02-04T12:23:34;10.23;;;3.33;;
16969;SDS011;8601;48.718;8.992;2023-02-04T12:26:01;13.80;;;7.83;;
16969;SDS011;8601;48.718;8.992;2023-02-04T12:28:28;12.03;;;3.07;;
16969;SDS011;8601;48.718;8.992;2023-02-04T12:30:57;13.30;;;4.00;;
16969;SDS011;8601;48.718;8.992;2023-02-04T12:33:24;8.53;;;2.90;;
16969;SDS011;8601;48.718;8.992;2023-02-04T12:35:51;13.03;;;3.20;;
16969;SDS011;8601;48.718;8.992;2023-02-04T12:38:18;11.37;;;3.67;;
16969;SDS011;8601;48.718;8.992;2023-02-04T12:40:45;11.17;;;3.37;;
16969;SDS011;8601;48.718;8.992;2023-02-04T12:43:12;9.73;;;3.43;;
16969;SDS011;8601;48.718;8.992;2023-02-04T12:45:39;11.10;;;3.00;;
16969;SDS011;8601;48.718;8.992;2023-02-04T12:48:11;11.10;;;4.30;;
16969;SDS011;8601;48.718;8.992;2023-02-04T12:50:37;9.53;;;2.93;;
16969;SDS011;8601;48.718;8.992;2023-02-04T12:53:08;9.07;;;2.90;;
16969;SDS011;8601;48.718;8.992;2023-02-04T12:55:35;9.83;;;3.07;;
16969;SDS011;8601;48.718;8.992;2023-02-04T12:58:02;12.57;;;3.20;;
16969;SDS011;8601;48.718;8.992;2023-02-04T13:00:29;12.13;;;3.23;;
16969;SDS011;8601;48.718;8.992;2023-02-04T13:02:56;8.30;;;2.70;;
16969;SDS011;8601;48.718;8.992;2023-02-04T13:05:25;11.63;;;2.93;;
16969;SDS011;8601;48.718;8.992;2023-02-04T13:07:53;9.20;;;3.47;;
16969;SDS011;8601;48.718;8.992;2023-02-04T13:10:21;11.63;;;3.23;;
16969;SDS011;8601;48.718;8.992;2023-02-04T13:12:49;14.30;;;3.37;;
16969;SDS011;8601;48.718;8.992;2023-02-04T13:15:15;8.53;;;2.60;;
16969;SDS011;8601;48.718;8.992;2023-02-04T13:17:43;10.53;;;3.70;;
16969;SDS011;8601;48.718;8.992;2023-02-04T13:20:10;12.50;;;3.30;;
16969;SDS011;8601;48.718;8.992;2023-02-04T13:22:39;11.87;;;3.20;;
16969;SDS011;8601;48.718;8.992;2023-02-04T13:25:06;11.37;;;3.43;;
16969;SDS011;8601;48.718;8.992;2023-02-04T13:27:35;11.40;;;2.97;;
16969;SDS011;8601;48.718;8.992;2023-02-04T13:30:03;8.43;;;3.00;;
16969;SDS011;8601;48.718;8.992;2023-02-04T13:32:30;7.80;;;2.90;;
16969;SDS011;8601;48.718;8.992;2023-02-04T13:34:57;9.13;;;3.17;;
16969;SDS011;8601;48.718;8.992;2023-02-04T13:37:24;8.53;;;2.77;;
16969;SDS011;8601;48.718;8.992;2023-02-04T13:39:54;11.67;;;2.70;;
16969;SDS011;8601;48.718;8.992;2023-02-04T13:42:21;6.27;;;1.90;;
16969;SDS011;8601;48.718;8.992;2023-02-04T13:44:48;6.27;;;2.37;;
16969;SDS011;8601;48.718;8.992;2023-02-04T13:47:15;9.07;;;2.53;;
16969;SDS011;8601;48.718;8.992;2023-02-04T13:49:42;5.60;;;1.83;;
16969;SDS011;8601;48.718;8.992;2023-02-04T13:52:09;6.37;;;2.40;;
16969;SDS011;8601;48.718;8.992;2023-02-04T13:54:36;6.37;;;2.27;;
16969;SDS011;8601;48.718;8.992;2023-02-04T13:57:05;6.40;;;2.33;;
16969;SDS011;8601;48.718;8.992;2023-02-04T13:59:32;6.80;;;2.40;;
16969;SDS011;8601;48.718;8.992;2023-02-04T14:01:58;5.60;;;2.27;;
16969;SDS011;8601;48.718;8.992;2023-02-04T14:04:25;6.23;;;2.50;;
16969;SDS011;8601;48.718;8.992;2023-02-04T14:06:52;8.87;;;2.80;;
16969;SDS011;8601;48.718;8.992;2023-02-04T14:09:20;5.87;;;2.53;;
16969;SDS011;8601;48.718;8.992;2023-02-04T14:11:47;9.20;;;2.60;;
16969;SDS011;8601;48.718;8.992;2023-02-04T14:14:17;6.67;;;2.20;;
16969;SDS011;8601;48.718;8.992;2023-02-04T14:16:44;7.13;;;2.83;;
16969;SDS011;8601;48.718;8.992;2023-02-04T14:19:10;7.53;;;2.60;;
16969;SDS011;8601;48.718;8.992;2023-02-04T14:21:38;6.90;;;2.43;;
16969;SDS011;8601;48.718;8.992;2023-02-04T14:24:07;8.00;;;2.30;;
16969;SDS011;8601;48.718;8.992;2023-02-04T14:26:34;7.53;;;2.47;;
16969;SDS011;8601;48.718;8.992;2023-02-04T14:29:01;10.20;;;3.00;;
16969;SDS011;8601;48.718;8.992;2023-02-04T14:31:29;8.67;;;2.77;;
16969;SDS011;8601;48.718;8.992;2023-02-04T14:33:56;11.93;;;3.53;;
16969;SDS011;8601;48.718;8.992;2023-02-04T14:36:23;6.83;;;2.43;;
16969;SDS011;8601;48.718;8.992;2023-02-04T14:38:50;12.13;;;3.43;;
16969;SDS011;8601;48.718;8.992;2023-02-04T14:41:17;9.23;;;3.17;;
16969;SDS011;8601;48.718;8.992;2023-02-04T14:43:45;9.47;;;3.50;;
16969;SDS011;8601;48.718;8.992;2023-02-04T14:46:12;13.83;;;3.13;;
16969;SDS011;8601;48.718;8.992;2023-02-04T14:48:40;6.23;;;3.10;;
16969;SDS011;8601;48.718;8.992;2023-02-04T14:51:09;9.07;;;3.17;;
16969;SDS011;8601;48.718;8.992;2023-02-04T14:53:39;7.97;;;2.90;;
16969;SDS011;8601;48.718;8.992;2023-02-04T14:56:06;9.20;;;3.80;;
16969;SDS011;8601;48.718;8.992;2023-02-04T14:58:33;9.87;;;3.00;;
16969;SDS011;8601;48.718;8.992;2023-02-04T15:01:00;9.00;;;3.13;;
16969;SDS011;8601;48.718;8.992;2023-02-04T15:03:26;12.90;;;3.17;;